sensor_id;sensor_type;location;lat;lon;timestamp;pressure;altitude;pressure_sealevel;temperature;humidity
9822;BME280;4950;46.042;14.472;2023-06-04T00:00:25;98111.53;;;18.96;79.25
9822;BME280;4950;46.042;14.472;2023-06-04T00:02:52;98115.19;;;18.95;79.28
9822;BME280;4950;46.042;14.472;2023-06-04T00:05:20;98098.69;;;18.88;79.58
9822;BME280;4950;46.042;14.472;2023-06-04T00:07:50;98102.78;;;18.84;79.59
9822;BME280;4950;46.042;14.472;2023-06-04T00:10:17;98106.00;;;18.86;79.76
9822;BME280;4950;46.042;14.472;2023-06-04T00:12:43;98099.72;;;18.87;79.83
9822;BME280;4950;46.042;14.472;2023-06-04T00:15:10;98092.47;;;18.64;80.87
9822;BME280;4950;46.042;14.472;2023-06-04T00:17:37;98094.69;;;18.48;81.76
9822;BME280;4950;46.042;14.472;2023-06-04T00:20:04;98096.34;;;18.43;82.43
9822;BME280;4950;46.042;14.472;2023-06-04T00:22:32;98097.00;;;18.57;82.06
9822;BME280;4950;46.042;14.472;2023-06-04T00:24:59;98101.97;;;18.65;81.29
9822;BME280;4950;46.042;14.472;2023-06-04T00:27:25;98094.66;;;18.67;81.17
9822;BME280;4950;46.042;14.472;2023-06-04T00:29:52;98084.72;;;18.69;81.54
9822;BME280;4950;46.042;14.472;2023-06-04T00:32:19;98093.91;;;18.78;81.05
9822;BME280;4950;46.042;14.472;2023-06-04T00:34:50;98087.34;;;18.87;80.46
9822;BME280;4950;46.042;14.472;2023-06-04T00:37:17;98083.56;;;18.83;80.51
9822;BME280;4950;46.042;14.472;2023-06-04T00:39:45;98076.94;;;18.81;80.62
9822;BME280;4950;46.042;14.472;2023-06-04T00:42:11;98077.19;;;18.91;80.28
9822;BME280;4950;46.042;14.472;2023-06-04T00:44:38;98080.78;;;18.97;80.27
9822;BME280;4950;46.042;14.472;2023-06-04T00:47:10;98075.41;;;19.03;79.57
9822;BME280;4950;46.042;14.472;2023-06-04T00:49:37;98074.81;;;19.01;80.19
9822;BME280;4950;46.042;14.472;2023-06-04T00:52:04;98078.25;;;19.02;79.99
9822;BME280;4950;46.042;14.472;2023-06-04T00:54:31;98071.84;;;18.98;80.16
9822;BME280;4950;46.042;14.472;2023-06-04T00:57:00;98075.94;;;18.93;80.27
9822;BME280;4950;46.042;14.472;2023-06-04T00:59:28;98078.72;;;18.99;79.96
9822;BME280;4950;46.042;14.472;2023-06-04T01:02:00;98078.56;;;18.93;80.13
9822;BME280;4950;46.042;14.472;2023-06-04T01:04:32;98079.38;;;18.94;80.14
9822;BME280;4950;46.042;14.472;2023-06-04T01:07:00;98072.06;;;18.96;79.97
9822;BME280;4950;46.042;14.472;2023-06-04T01:09:28;98071.41;;;19.01;79.99
9822;BME280;4950;46.042;14.472;2023-06-04T01:11:56;98070.94;;;19.04;80.01
9822;BME280;4950;46.042;14.472;2023-06-04T01:14:25;98070.94;;;19.04;79.95
9822;BME280;4950;46.042;14.472;2023-06-04T01:16:57;98074.25;;;18.99;80.10
9822;BME280;4950;46.042;14.472;2023-06-04T01:22:43;98069.09;;;18.92;80.34
9822;BME280;4950;46.042;14.472;2023-06-04T01:25:28;98068.72;;;18.89;80.55
9822;BME280;4950;46.042;14.472;2023-06-04T01:27:58;98068.50;;;18.90;80.47
9822;BME280;4950;46.042;14.472;2023-06-04T01:30:30;98067.00;;;18.83;80.83
9822;BME280;4950;46.042;14.472;2023-06-04T01:32:57;98057.84;;;18.85;80.39
9822;BME280;4950;46.042;14.472;2023-06-04T01:35:24;98056.59;;;18.88;80.37
9822;BME280;4950;46.042;14.472;2023-06-04T01:37:51;98052.94;;;18.89;80.27
9822;BME280;4950;46.042;14.472;2023-06-04T01:40:19;98048.78;;;18.81;80.43
9822;BME280;4950;46.042;14.472;2023-06-04T01:42:46;98048.69;;;18.88;79.94
9822;BME280;4950;46.042;14.472;2023-06-04T01:45:13;98050.44;;;18.75;80.13
9822;BME280;4950;46.042;14.472;2023-06-04T01:47:43;98042.34;;;18.77;80.29
9822;BME280;4950;46.042;14.472;2023-06-04T01:50:10;98050.53;;;18.69;80.43
9822;BME280;4950;46.042;14.472;2023-06-04T01:52:37;98052.16;;;18.70;80.74
9822;BME280;4950;46.042;14.472;2023-06-04T01:55:04;98047.91;;;18.69;80.46
9822;BME280;4950;46.042;14.472;2023-06-04T01:57:33;98058.16;;;18.59;80.82
9822;BME280;4950;46.042;14.472;2023-06-04T02:00:00;98060.41;;;18.55;80.99
9822;BME280;4950;46.042;14.472;2023-06-04T02:02:28;98060.19;;;18.57;80.73
9822;BME280;4950;46.042;14.472;2023-06-04T02:04:56;98057.56;;;18.57;80.56
9822;BME280;4950;46.042;14.472;2023-06-04T02:07:23;98055.03;;;18.50;81.12
9822;BME280;4950;46.042;14.472;2023-06-04T02:09:51;98051.16;;;18.52;80.63
9822;BME280;4950;46.042;14.472;2023-06-04T02:12:18;98048.97;;;18.49;80.90
9822;BME280;4950;46.042;14.472;2023-06-04T02:14:44;98050.78;;;18.49;80.71
9822;BME280;4950;46.042;14.472;2023-06-04T02:17:12;98048.59;;;18.46;80.86
9822;BME280;4950;46.042;14.472;2023-06-04T02:19:39;98043.94;;;18.48;80.79
9822;BME280;4950;46.042;14.472;2023-06-04T02:22:11;98040.47;;;18.47;80.47
9822;BME280;4950;46.042;14.472;2023-06-04T02:24:38;98044.22;;;18.40;81.10
9822;BME280;4950;46.042;14.472;2023-06-04T02:27:07;98044.28;;;18.33;81.05
9822;BME280;4950;46.042;14.472;2023-06-04T02:29:34;98046.34;;;18.31;81.33
9822;BME280;4950;46.042;14.472;2023-06-04T02:32:01;98036.34;;;18.21;81.30
9822;BME280;4950;46.042;14.472;2023-06-04T02:34:28;98041.81;;;18.20;81.46
9822;BME280;4950;46.042;14.472;2023-06-04T02:36:55;98049.06;;;18.24;81.14
9822;BME280;4950;46.042;14.472;2023-06-04T02:39:23;98043.44;;;18.21;81.38
9822;BME280;4950;46.042;14.472;2023-06-04T02:41:49;98039.19;;;18.20;81.01
9822;BME280;4950;46.042;14.472;2023-06-04T02:44:16;98048.31;;;18.17;81.18
9822;BME280;4950;46.042;14.472;2023-06-04T02:46:43;98049.69;;;18.20;80.67
9822;BME280;4950;46.042;14.472;2023-06-04T02:49:10;98051.38;;;18.14;80.69
9822;BME280;4950;46.042;14.472;2023-06-04T02:51:38;98049.25;;;18.04;81.37
9822;BME280;4950;46.042;14.472;2023-06-04T02:54:05;98052.53;;;18.00;81.81
9822;BME280;4950;46.042;14.472;2023-06-04T02:56:34;98055.38;;;17.98;81.62
9822;BME280;4950;46.042;14.472;2023-06-04T02:59:01;98053.28;;;17.82;82.08
9822;BME280;4950;46.042;14.472;2023-06-04T03:01:28;98059.34;;;17.82;82.18
9822;BME280;4950;46.042;14.472;2023-06-04T03:03:55;98060.78;;;17.78;82.29
9822;BME280;4950;46.042;14.472;2023-06-04T03:06:22;98059.78;;;17.79;81.78
9822;BME280;4950;46.042;14.472;2023-06-04T03:08:50;98065.53;;;17.69;82.32
9822;BME280;4950;46.042;14.472;2023-06-04T03:11:17;98065.63;;;17.56;82.18
9822;BME280;4950;46.042;14.472;2023-06-04T03:13:46;98073.66;;;17.61;81.73
9822;BME280;4950;46.042;14.472;2023-06-04T03:16:12;98069.25;;;17.55;82.38
9822;BME280;4950;46.042;14.472;2023-06-04T03:18:40;98073.13;;;17.52;82.41
9822;BME280;4950;46.042;14.472;2023-06-04T03:21:07;98073.50;;;17.56;82.22
9822;BME280;4950;46.042;14.472;2023-06-04T03:23:35;98078.25;;;17.41;82.59
9822;BME280;4950;46.042;14.472;2023-06-04T03:26:02;98081.31;;;17.37;82.83
9822;BME280;4950;46.042;14.472;2023-06-04T03:28:29;98087.84;;;17.28;83.14
9822;BME280;4950;46.042;14.472;2023-06-04T03:30:57;98089.03;;;17.32;83.05
9822;BME280;4950;46.042;14.472;2023-06-04T03:33:24;98084.78;;;17.31;83.03
9822;BME280;4950;46.042;14.472;2023-06-04T03:35:51;98085.53;;;17.39;82.77
9822;BME280;4950;46.042;14.472;2023-06-04T03:38:18;98087.59;;;17.36;82.59
9822;BME280;4950;46.042;14.472;2023-06-04T03:40:45;98088.59;;;17.35;83.12
9822;BME280;4950;46.042;14.472;2023-06-04T03:43:12;98092.44;;;17.33;83.06
9822;BME280;4950;46.042;14.472;2023-06-04T03:45:38;98090.47;;;17.28;83.29
9822;BME280;4950;46.042;14.472;2023-06-04T03:48:06;98083.66;;;17.21;83.35
9822;BME280;4950;46.042;14.472;2023-06-04T03:50:33;98086.09;;;17.15;83.32
9822;BME280;4950;46.042;14.472;2023-06-04T03:53:00;98086.31;;;17.14;83.75
9822;BME280;4950;46.042;14.472;2023-06-04T03:55:30;98094.47;;;17.31;83.52
9822;BME280;4950;46.042;14.472;2023-06-04T03:57:57;98087.19;;;17.33;83.15
9822;BME280;4950;46.042;14.472;2023-06-04T04:00:24;98090.81;;;17.32;83.51
9822;BME280;4950;46.042;14.472;2023-06-04T04:02:50;98089.84;;;17.26;83.41
9822;BME280;4950;46.042;14.472;2023-06-04T04:05:18;98089.09;;;17.19;83.94
9822;BME280;4950;46.042;14.472;2023-06-04T04:07:45;98087.75;;;17.10;83.73
9822;BME280;4950;46.042;14.472;2023-06-04T04:10:13;98089.97;;;17.06;83.79
9822;BME280;4950;46.042;14.472;2023-06-04T04:12:39;98093.44;;;17.00;83.98
9822;BME280;4950;46.042;14.472;2023-06-04T04:15:07;98105.19;;;16.91;84.61
9822;BME280;4950;46.042;14.472;2023-06-04T04:17:33;98107.66;;;16.86;84.62
9822;BME280;4950;46.042;14.472;2023-06-04T04:20:00;98100.00;;;16.77;85.06
9822;BME280;4950;46.042;14.472;2023-06-04T04:22:30;98107.84;;;16.77;85.42
9822;BME280;4950;46.042;14.472;2023-06-04T04:24:58;98112.72;;;16.74;86.87
9822;BME280;4950;46.042;14.472;2023-06-04T04:27:28;98111.28;;;16.71;86.95
9822;BME280;4950;46.042;14.472;2023-06-04T04:29:56;98108.31;;;16.68;88.15
9822;BME280;4950;46.042;14.472;2023-06-04T04:32:25;98109.72;;;16.57;88.55
9822;BME280;4950;46.042;14.472;2023-06-04T04:34:53;98108.59;;;16.33;89.76
9822;BME280;4950;46.042;14.472;2023-06-04T04:37:20;98107.81;;;16.19;91.42
9822;BME280;4950;46.042;14.472;2023-06-04T04:39:49;98107.78;;;16.32;91.41
9822;BME280;4950;46.042;14.472;2023-06-04T04:42:17;98100.31;;;16.43;91.13
9822;BME280;4950;46.042;14.472;2023-06-04T04:44:44;98109.56;;;16.45;89.43
9822;BME280;4950;46.042;14.472;2023-06-04T04:47:12;98104.13;;;16.40;89.77
9822;BME280;4950;46.042;14.472;2023-06-04T04:49:39;98110.63;;;16.24;91.27
9822;BME280;4950;46.042;14.472;2023-06-04T04:52:05;98115.66;;;16.26;91.58
9822;BME280;4950;46.042;14.472;2023-06-04T04:54:32;98108.59;;;16.33;91.48
9822;BME280;4950;46.042;14.472;2023-06-04T04:57:00;98100.69;;;16.46;91.14
9822;BME280;4950;46.042;14.472;2023-06-04T04:59:27;98102.47;;;16.59;90.74
9822;BME280;4950;46.042;14.472;2023-06-04T05:01:53;98097.19;;;16.66;90.06
9822;BME280;4950;46.042;14.472;2023-06-04T05:04:20;98093.50;;;16.80;89.64
9822;BME280;4950;46.042;14.472;2023-06-04T05:06:46;98097.69;;;16.94;88.60
9822;BME280;4950;46.042;14.472;2023-06-04T05:09:13;98094.88;;;16.96;88.23
9822;BME280;4950;46.042;14.472;2023-06-04T05:11:40;98102.34;;;16.99;88.15
9822;BME280;4950;46.042;14.472;2023-06-04T05:14:08;98101.09;;;17.02;87.82
9822;BME280;4950;46.042;14.472;2023-06-04T05:16:36;98098.03;;;17.05;88.02
9822;BME280;4950;46.042;14.472;2023-06-04T05:19:03;98106.34;;;17.02;87.89
9822;BME280;4950;46.042;14.472;2023-06-04T05:21:30;98104.13;;;17.05;87.80
9822;BME280;4950;46.042;14.472;2023-06-04T05:23:56;98099.25;;;17.09;87.56
9822;BME280;4950;46.042;14.472;2023-06-04T05:26:23;98099.22;;;17.15;87.27
9822;BME280;4950;46.042;14.472;2023-06-04T05:28:51;98101.78;;;17.22;86.91
9822;BME280;4950;46.042;14.472;2023-06-04T05:31:19;98095.75;;;17.22;86.64
9822;BME280;4950;46.042;14.472;2023-06-04T05:33:46;98096.53;;;17.22;86.28
9822;BME280;4950;46.042;14.472;2023-06-04T05:36:13;98103.44;;;17.16;85.97
9822;BME280;4950;46.042;14.472;2023-06-04T05:38:40;98105.25;;;17.16;86.66
9822;BME280;4950;46.042;14.472;2023-06-04T05:41:07;98101.44;;;17.12;87.08
9822;BME280;4950;46.042;14.472;2023-06-04T05:43:34;98102.25;;;17.12;87.15
9822;BME280;4950;46.042;14.472;2023-06-04T05:46:01;98099.84;;;17.11;87.36
9822;BME280;4950;46.042;14.472;2023-06-04T05:48:28;98100.59;;;17.18;87.24
9822;BME280;4950;46.042;14.472;2023-06-04T05:50:55;98105.81;;;17.25;87.13
9822;BME280;4950;46.042;14.472;2023-06-04T05:53:22;98103.78;;;17.27;86.86
9822;BME280;4950;46.042;14.472;2023-06-04T05:55:48;98108.19;;;17.33;87.13
9822;BME280;4950;46.042;14.472;2023-06-04T05:58:15;98099.47;;;17.39;86.93
9822;BME280;4950;46.042;14.472;2023-06-04T06:00:41;98108.31;;;17.45;87.66
9822;BME280;4950;46.042;14.472;2023-06-04T06:03:09;98116.13;;;17.51;86.38
9822;BME280;4950;46.042;14.472;2023-06-04T06:05:37;98112.91;;;17.49;86.30
9822;BME280;4950;46.042;14.472;2023-06-04T06:08:04;98115.38;;;17.44;86.29
9822;BME280;4950;46.042;14.472;2023-06-04T06:10:31;98107.06;;;17.47;86.59
9822;BME280;4950;46.042;14.472;2023-06-04T06:12:58;98114.34;;;17.52;86.33
9822;BME280;4950;46.042;14.472;2023-06-04T06:15:26;98116.09;;;17.58;85.98
9822;BME280;4950;46.042;14.472;2023-06-04T06:17:53;98118.66;;;17.65;86.48
9822;BME280;4950;46.042;14.472;2023-06-04T06:20:20;98118.25;;;17.68;86.30
9822;BME280;4950;46.042;14.472;2023-06-04T06:22:49;98119.25;;;17.67;86.27
9822;BME280;4950;46.042;14.472;2023-06-04T06:25:16;98116.59;;;17.73;86.02
9822;BME280;4950;46.042;14.472;2023-06-04T06:27:42;98115.72;;;17.80;85.37
9822;BME280;4950;46.042;14.472;2023-06-04T06:30:09;98117.31;;;17.81;85.38
9822;BME280;4950;46.042;14.472;2023-06-04T06:32:37;98121.16;;;17.85;85.70
9822;BME280;4950;46.042;14.472;2023-06-04T06:35:04;98121.91;;;17.92;85.14
9822;BME280;4950;46.042;14.472;2023-06-04T06:37:31;98125.09;;;18.01;85.00
9822;BME280;4950;46.042;14.472;2023-06-04T06:39:59;98117.50;;;18.11;84.46
9822;BME280;4950;46.042;14.472;2023-06-04T06:42:26;98118.69;;;18.15;83.71
9822;BME280;4950;46.042;14.472;2023-06-04T06:44:52;98120.44;;;18.21;83.29
9822;BME280;4950;46.042;14.472;2023-06-04T06:47:19;98117.72;;;18.28;83.75
9822;BME280;4950;46.042;14.472;2023-06-04T06:49:45;98126.81;;;18.32;83.50
9822;BME280;4950;46.042;14.472;2023-06-04T06:52:12;98119.94;;;18.31;83.83
9822;BME280;4950;46.042;14.472;2023-06-04T06:54:39;98115.25;;;18.33;83.43
9822;BME280;4950;46.042;14.472;2023-06-04T06:57:07;98118.34;;;18.30;82.96
9822;BME280;4950;46.042;14.472;2023-06-04T06:59:34;98123.94;;;18.33;83.23
9822;BME280;4950;46.042;14.472;2023-06-04T07:02:01;98119.44;;;18.41;83.08
9822;BME280;4950;46.042;14.472;2023-06-04T07:04:28;98119.09;;;18.55;82.44
9822;BME280;4950;46.042;14.472;2023-06-04T07:06:54;98114.31;;;18.64;81.73
9822;BME280;4950;46.042;14.472;2023-06-04T07:09:21;98116.63;;;18.72;81.39
9822;BME280;4950;46.042;14.472;2023-06-04T07:11:47;98129.94;;;18.78;80.60
9822;BME280;4950;46.042;14.472;2023-06-04T07:14:15;98126.44;;;18.84;80.31
9822;BME280;4950;46.042;14.472;2023-06-04T07:16:43;98125.00;;;18.88;78.77
9822;BME280;4950;46.042;14.472;2023-06-04T07:19:10;98129.94;;;18.96;78.79
9822;BME280;4950;46.042;14.472;2023-06-04T07:21:36;98131.72;;;19.02;77.17
9822;BME280;4950;46.042;14.472;2023-06-04T07:24:03;98131.59;;;19.09;76.91
9822;BME280;4950;46.042;14.472;2023-06-04T07:26:31;98128.28;;;19.13;76.70
9822;BME280;4950;46.042;14.472;2023-06-04T07:28:58;98125.59;;;19.20;76.12
9822;BME280;4950;46.042;14.472;2023-06-04T07:31:26;98131.53;;;19.27;75.92
9822;BME280;4950;46.042;14.472;2023-06-04T07:33:52;98131.84;;;19.38;76.13
9822;BME280;4950;46.042;14.472;2023-06-04T07:36:19;98125.16;;;19.35;76.03
9822;BME280;4950;46.042;14.472;2023-06-04T07:38:48;98128.47;;;19.30;76.14
9822;BME280;4950;46.042;14.472;2023-06-04T07:41:14;98129.97;;;19.26;76.24
9822;BME280;4950;46.042;14.472;2023-06-04T07:43:42;98122.31;;;19.37;75.85
9822;BME280;4950;46.042;14.472;2023-06-04T07:46:09;98123.03;;;19.44;75.29
9822;BME280;4950;46.042;14.472;2023-06-04T07:48:38;98125.34;;;19.52;75.33
9822;BME280;4950;46.042;14.472;2023-06-04T07:51:04;98121.34;;;19.61;74.73
9822;BME280;4950;46.042;14.472;2023-06-04T07:53:31;98132.69;;;19.62;72.01
9822;BME280;4950;46.042;14.472;2023-06-04T07:55:57;98141.28;;;19.57;71.70
9822;BME280;4950;46.042;14.472;2023-06-04T07:58:24;98129.59;;;19.53;70.40
9822;BME280;4950;46.042;14.472;2023-06-04T08:00:51;98124.53;;;19.51;70.28
9822;BME280;4950;46.042;14.472;2023-06-04T08:03:18;98123.63;;;19.58;70.65
9822;BME280;4950;46.042;14.472;2023-06-04T08:05:47;98124.91;;;19.67;70.46
9822;BME280;4950;46.042;14.472;2023-06-04T08:08:13;98128.03;;;19.76;71.25
9822;BME280;4950;46.042;14.472;2023-06-04T08:10:40;98123.25;;;19.84;71.94
9822;BME280;4950;46.042;14.472;2023-06-04T08:13:07;98126.34;;;19.93;71.57
9822;BME280;4950;46.042;14.472;2023-06-04T08:15:35;98128.19;;;20.04;71.52
9822;BME280;4950;46.042;14.472;2023-06-04T08:18:01;98125.78;;;20.15;71.09
9822;BME280;4950;46.042;14.472;2023-06-04T08:20:28;98124.28;;;20.19;69.52
9822;BME280;4950;46.042;14.472;2023-06-04T08:22:56;98124.50;;;20.17;68.69
9822;BME280;4950;46.042;14.472;2023-06-04T08:25:23;98126.69;;;20.20;68.59
9822;BME280;4950;46.042;14.472;2023-06-04T08:27:50;98126.69;;;20.20;67.46
9822;BME280;4950;46.042;14.472;2023-06-04T08:30:16;98122.13;;;20.16;66.99
9822;BME280;4950;46.042;14.472;2023-06-04T08:32:43;98113.06;;;20.23;66.99
9822;BME280;4950;46.042;14.472;2023-06-04T08:35:10;98106.63;;;20.31;67.77
9822;BME280;4950;46.042;14.472;2023-06-04T08:37:36;98111.75;;;20.38;68.11
9822;BME280;4950;46.042;14.472;2023-06-04T08:40:06;98120.38;;;20.45;67.63
9822;BME280;4950;46.042;14.472;2023-06-04T08:42:38;98112.66;;;20.55;67.65
9822;BME280;4950;46.042;14.472;2023-06-04T08:45:10;98106.59;;;20.66;65.09
9822;BME280;4950;46.042;14.472;2023-06-04T08:47:37;98109.88;;;20.74;65.58
9822;BME280;4950;46.042;14.472;2023-06-04T08:50:06;98105.13;;;20.87;64.41
9822;BME280;4950;46.042;14.472;2023-06-04T08:52:35;98105.47;;;20.91;63.25
9822;BME280;4950;46.042;14.472;2023-06-04T08:55:03;98107.41;;;20.96;63.27
9822;BME280;4950;46.042;14.472;2023-06-04T08:57:31;98104.22;;;20.94;63.63
9822;BME280;4950;46.042;14.472;2023-06-04T08:59:58;98103.50;;;20.98;64.24
9822;BME280;4950;46.042;14.472;2023-06-04T09:02:27;98105.28;;;21.09;65.66
9822;BME280;4950;46.042;14.472;2023-06-04T09:04:54;98106.25;;;21.20;65.81
9822;BME280;4950;46.042;14.472;2023-06-04T09:07:21;98104.59;;;21.31;66.59
9822;BME280;4950;46.042;14.472;2023-06-04T09:09:48;98097.88;;;21.40;65.30
9822;BME280;4950;46.042;14.472;2023-06-04T09:12:18;98093.94;;;21.55;63.90
9822;BME280;4950;46.042;14.472;2023-06-04T09:14:48;98093.63;;;21.68;64.35
9822;BME280;4950;46.042;14.472;2023-06-04T09:17:21;98095.13;;;21.81;64.12
9822;BME280;4950;46.042;14.472;2023-06-04T09:19:47;98098.97;;;21.90;63.35
9822;BME280;4950;46.042;14.472;2023-06-04T09:22:15;98097.00;;;22.02;62.98
9822;BME280;4950;46.042;14.472;2023-06-04T09:24:43;98100.38;;;22.15;60.11
9822;BME280;4950;46.042;14.472;2023-06-04T09:27:13;98100.44;;;22.20;59.48
9822;BME280;4950;46.042;14.472;2023-06-04T09:29:40;98099.41;;;22.21;59.46
9822;BME280;4950;46.042;14.472;2023-06-04T09:32:08;98091.06;;;22.29;60.83
9822;BME280;4950;46.042;14.472;2023-06-04T09:34:34;98102.56;;;22.40;60.00
9822;BME280;4950;46.042;14.472;2023-06-04T09:37:01;98109.34;;;22.53;59.88
9822;BME280;4950;46.042;14.472;2023-06-04T09:39:29;98105.25;;;22.62;60.17
9822;BME280;4950;46.042;14.472;2023-06-04T09:41:59;98118.03;;;22.70;60.47
9822;BME280;4950;46.042;14.472;2023-06-04T09:44:27;98129.97;;;22.73;58.79
9822;BME280;4950;46.042;14.472;2023-06-04T09:46:54;98128.69;;;22.75;58.66
9822;BME280;4950;46.042;14.472;2023-06-04T09:49:22;98127.63;;;22.76;57.84
9822;BME280;4950;46.042;14.472;2023-06-04T09:51:49;98119.94;;;22.75;57.74
9822;BME280;4950;46.042;14.472;2023-06-04T09:54:16;98129.97;;;22.73;58.68
9822;BME280;4950;46.042;14.472;2023-06-04T09:56:43;98118.34;;;22.74;58.95
9822;BME280;4950;46.042;14.472;2023-06-04T09:59:10;98124.44;;;22.74;58.84
9822;BME280;4950;46.042;14.472;2023-06-04T10:01:39;98129.47;;;22.76;59.68
9822;BME280;4950;46.042;14.472;2023-06-04T10:04:08;98131.59;;;22.74;57.19
9822;BME280;4950;46.042;14.472;2023-06-04T10:06:39;98128.38;;;22.72;57.44
9822;BME280;4950;46.042;14.472;2023-06-04T10:09:07;98125.41;;;22.68;57.01
9822;BME280;4950;46.042;14.472;2023-06-04T10:11:35;98123.53;;;22.63;57.33
9822;BME280;4950;46.042;14.472;2023-06-04T10:14:05;98122.47;;;22.64;57.62
9822;BME280;4950;46.042;14.472;2023-06-04T10:16:37;98114.28;;;22.66;57.89
9822;BME280;4950;46.042;14.472;2023-06-04T10:19:07;98114.53;;;22.64;58.15
9822;BME280;4950;46.042;14.472;2023-06-04T10:21:34;98122.16;;;22.61;57.87
9822;BME280;4950;46.042;14.472;2023-06-04T10:24:03;98124.91;;;22.49;58.72
9822;BME280;4950;46.042;14.472;2023-06-04T10:26:32;98120.25;;;22.34;60.52
9822;BME280;4950;46.042;14.472;2023-06-04T10:29:00;98122.00;;;22.12;62.35
9822;BME280;4950;46.042;14.472;2023-06-04T10:31:27;98120.75;;;21.97;63.08
9822;BME280;4950;46.042;14.472;2023-06-04T10:33:54;98131.66;;;21.84;64.07
9822;BME280;4950;46.042;14.472;2023-06-04T10:36:22;98125.16;;;21.75;65.13
9822;BME280;4950;46.042;14.472;2023-06-04T10:38:51;98130.28;;;21.64;65.38
9822;BME280;4950;46.042;14.472;2023-06-04T10:41:20;98136.75;;;21.57;65.81
9822;BME280;4950;46.042;14.472;2023-06-04T10:43:48;98133.22;;;21.51;65.46
9822;BME280;4950;46.042;14.472;2023-06-04T10:46:16;98134.19;;;21.45;66.43
9822;BME280;4950;46.042;14.472;2023-06-04T10:48:49;98139.00;;;21.36;64.74
9822;BME280;4950;46.042;14.472;2023-06-04T10:51:28;98132.59;;;21.32;66.08
9822;BME280;4950;46.042;14.472;2023-06-04T10:53:56;98149.00;;;21.34;66.22
9822;BME280;4950;46.042;14.472;2023-06-04T10:56:27;98136.31;;;21.31;67.46
9822;BME280;4950;46.042;14.472;2023-06-04T10:58:55;98140.19;;;21.28;68.65
9822;BME280;4950;46.042;14.472;2023-06-04T11:01:25;98148.88;;;21.12;69.83
9822;BME280;4950;46.042;14.472;2023-06-04T11:03:53;98150.66;;;20.95;71.39
9822;BME280;4950;46.042;14.472;2023-06-04T11:06:21;98169.06;;;20.54;74.65
9822;BME280;4950;46.042;14.472;2023-06-04T11:08:48;98167.84;;;20.21;77.25
9822;BME280;4950;46.042;14.472;2023-06-04T11:11:16;98154.75;;;20.03;79.41
9822;BME280;4950;46.042;14.472;2023-06-04T11:13:44;98164.44;;;19.67;80.13
9822;BME280;4950;46.042;14.472;2023-06-04T11:16:17;98168.34;;;19.34;83.06
9822;BME280;4950;46.042;14.472;2023-06-04T11:18:54;98167.06;;;19.06;84.93
9822;BME280;4950;46.042;14.472;2023-06-04T11:21:21;98176.88;;;18.99;86.58
9822;BME280;4950;46.042;14.472;2023-06-04T11:23:49;98174.75;;;18.89;87.25
9822;BME280;4950;46.042;14.472;2023-06-04T11:26:16;98173.59;;;18.85;87.32
9822;BME280;4950;46.042;14.472;2023-06-04T11:28:48;98180.53;;;18.80;88.86
9822;BME280;4950;46.042;14.472;2023-06-04T11:31:15;98182.69;;;18.64;87.04
9822;BME280;4950;46.042;14.472;2023-06-04T11:33:42;98189.50;;;18.53;87.03
9822;BME280;4950;46.042;14.472;2023-06-04T11:36:09;98192.16;;;18.47;86.86
9822;BME280;4950;46.042;14.472;2023-06-04T11:38:36;98198.88;;;18.43;85.61
9822;BME280;4950;46.042;14.472;2023-06-04T11:41:03;98193.41;;;18.44;84.85
9822;BME280;4950;46.042;14.472;2023-06-04T11:43:32;98188.44;;;18.54;84.13
9822;BME280;4950;46.042;14.472;2023-06-04T11:46:05;98194.75;;;18.72;84.08
9822;BME280;4950;46.042;14.472;2023-06-04T11:48:32;98196.09;;;18.81;83.95
9822;BME280;4950;46.042;14.472;2023-06-04T11:51:04;98198.34;;;18.78;83.91
9822;BME280;4950;46.042;14.472;2023-06-04T11:53:32;98202.56;;;18.79;84.04
9822;BME280;4950;46.042;14.472;2023-06-04T11:55:59;98206.06;;;18.72;83.45
9822;BME280;4950;46.042;14.472;2023-06-04T11:58:26;98201.25;;;18.69;83.69
9822;BME280;4950;46.042;14.472;2023-06-04T12:00:55;98198.03;;;18.67;84.39
9822;BME280;4950;46.042;14.472;2023-06-04T12:03:34;98199.00;;;18.73;84.32
9822;BME280;4950;46.042;14.472;2023-06-04T12:06:12;98201.56;;;18.80;84.64
9822;BME280;4950;46.042;14.472;2023-06-04T12:08:49;98202.44;;;18.73;85.27
9822;BME280;4950;46.042;14.472;2023-06-04T12:11:24;98209.94;;;18.70;86.32
9822;BME280;4950;46.042;14.472;2023-06-04T12:13:52;98211.56;;;18.71;87.17
9822;BME280;4950;46.042;14.472;2023-06-04T12:16:19;98204.53;;;18.65;87.39
9822;BME280;4950;46.042;14.472;2023-06-04T12:18:47;98197.31;;;18.60;86.31
9822;BME280;4950;46.042;14.472;2023-06-04T12:21:20;98195.09;;;18.57;85.77
9822;BME280;4950;46.042;14.472;2023-06-04T12:23:48;98193.72;;;18.54;85.68
9822;BME280;4950;46.042;14.472;2023-06-04T12:26:22;98197.03;;;18.43;85.01
9822;BME280;4950;46.042;14.472;2023-06-04T12:28:59;98192.16;;;18.47;85.68
9822;BME280;4950;46.042;14.472;2023-06-04T12:31:26;98188.06;;;18.51;85.66
9822;BME280;4950;46.042;14.472;2023-06-04T12:34:01;98196.13;;;18.56;86.32
9822;BME280;4950;46.042;14.472;2023-06-04T12:36:28;98196.41;;;18.66;85.97
9822;BME280;4950;46.042;14.472;2023-06-04T12:38:58;98192.69;;;18.74;84.98
9822;BME280;4950;46.042;14.472;2023-06-04T12:41:25;98193.47;;;18.81;84.93
9822;BME280;4950;46.042;14.472;2023-06-04T12:43:52;98188.13;;;18.88;84.63
9822;BME280;4950;46.042;14.472;2023-06-04T12:46:19;98191.66;;;19.00;84.94
9822;BME280;4950;46.042;14.472;2023-06-04T12:48:46;98192.72;;;19.11;84.83
9822;BME280;4950;46.042;14.472;2023-06-04T12:51:15;98189.78;;;19.19;82.76
9822;BME280;4950;46.042;14.472;2023-06-04T12:53:41;98190.66;;;19.31;82.44
9822;BME280;4950;46.042;14.472;2023-06-04T12:56:08;98175.34;;;19.40;81.74
9822;BME280;4950;46.042;14.472;2023-06-04T12:58:35;98179.69;;;19.46;81.64
9822;BME280;4950;46.042;14.472;2023-06-04T13:01:02;98182.84;;;19.55;81.79
9822;BME280;4950;46.042;14.472;2023-06-04T13:03:30;98174.38;;;19.65;81.37
9822;BME280;4950;46.042;14.472;2023-06-04T13:05:57;98171.66;;;19.71;81.46
9822;BME280;4950;46.042;14.472;2023-06-04T13:08:25;98170.75;;;19.78;80.92
9822;BME280;4950;46.042;14.472;2023-06-04T13:10:52;98166.22;;;19.85;80.21
9822;BME280;4950;46.042;14.472;2023-06-04T13:13:19;98168.38;;;19.88;80.01
9822;BME280;4950;46.042;14.472;2023-06-04T13:15:46;98165.06;;;19.92;79.89